createdAt,value
2018-06-25T00:00:19.143Z,6.13
2018-06-25T00:02:49.419Z,6.57
2018-06-25T00:05:19.199Z,6.80
2018-06-25T00:07:49.518Z,6.33
2018-06-25T00:10:19.419Z,6.67
2018-06-25T00:12:49.298Z,6.83
2018-06-25T00:15:19.038Z,6.80
2018-06-25T00:17:48.738Z,6.70
2018-06-25T00:20:17.838Z,6.80
2018-06-25T00:22:47.439Z,6.63
2018-06-25T00:25:17.118Z,7.10
2018-06-25T00:27:46.798Z,7.60
2018-06-25T00:30:16.699Z,7.53
2018-06-25T00:32:46.339Z,7.57
2018-06-25T00:35:16.119Z,7.37
2018-06-25T00:37:45.879Z,7.50
2018-06-25T00:40:15.638Z,7.37
2018-06-25T00:42:45.459Z,6.97
2018-06-25T00:45:15.204Z,7.03
2018-06-25T00:47:44.979Z,7.63
2018-06-25T00:50:15.159Z,7.23
2018-06-25T00:52:44.838Z,7.57
2018-06-25T00:55:14.279Z,7.00
2018-06-25T00:57:44.082Z,7.20
2018-06-25T01:00:14.601Z,7.50
2018-06-25T01:02:44.758Z,6.90
2018-06-25T01:05:14.558Z,7.37
2018-06-25T01:07:44.318Z,7.13
2018-06-25T01:10:14.039Z,7.63
2018-06-25T01:12:43.758Z,6.77
2018-06-25T01:15:13.598Z,6.87
2018-06-25T01:17:43.419Z,7.13
2018-06-25T01:20:13.179Z,6.77
2018-06-25T01:22:42.978Z,6.70
2018-06-25T01:25:13.280Z,6.63
2018-06-25T01:27:43.078Z,6.77
2018-06-25T01:30:13.080Z,6.23
2018-06-25T01:32:42.200Z,7.47
2018-06-25T01:35:12.359Z,6.47
2018-06-25T01:37:42.439Z,7.13
2018-06-25T01:40:12.119Z,6.90
2018-06-25T01:42:41.960Z,7.50
2018-06-25T01:45:11.759Z,6.70
2018-06-25T01:47:41.460Z,6.40
2018-06-25T01:50:11.306Z,6.30
2018-06-25T01:52:41.319Z,6.30
2018-06-25T01:55:12.361Z,5.53
2018-06-25T01:57:42.104Z,6.20
2018-06-25T02:00:13.115Z,5.80
2018-06-25T02:02:43.482Z,5.33
2018-06-25T02:05:13.305Z,4.97
2018-06-25T02:07:43.302Z,5.10
2018-06-25T02:10:13.122Z,5.97
2018-06-25T02:12:43.082Z,6.63
2018-06-25T02:15:13.011Z,6.60
2018-06-25T02:17:42.722Z,6.47
2018-06-25T02:20:12.482Z,6.60
2018-06-25T02:22:42.302Z,6.60
2018-06-25T02:25:12.063Z,6.53
2018-06-25T02:27:41.802Z,6.63
2018-06-25T02:30:11.522Z,6.63
2018-06-25T02:32:41.441Z,6.43
2018-06-25T02:35:11.526Z,6.87
2018-06-25T02:37:41.764Z,6.87
2018-06-25T02:40:11.560Z,6.10
2018-06-25T02:42:41.319Z,6.80
2018-06-25T02:45:11.079Z,6.90
2018-06-25T02:47:40.840Z,6.70
2018-06-25T02:50:10.621Z,6.17
2018-06-25T02:52:40.362Z,6.33
2018-06-25T02:55:10.100Z,6.40
2018-06-25T02:57:39.880Z,5.87
2018-06-25T03:00:09.639Z,6.07
2018-06-25T03:02:38.720Z,6.40
2018-06-25T03:05:08.420Z,6.93
2018-06-25T03:07:38.280Z,6.50
2018-06-25T03:10:08.051Z,6.67
2018-06-25T03:12:37.781Z,6.20
2018-06-25T03:15:08.539Z,6.40
2018-06-25T03:17:38.281Z,6.40
2018-06-25T03:20:07.362Z,6.63
2018-06-25T03:22:38.428Z,6.10
2018-06-25T03:25:08.207Z,6.03
2018-06-25T03:27:37.959Z,6.07
2018-06-25T03:30:08.040Z,5.73
2018-06-25T03:32:42.079Z,5.83
2018-06-25T03:35:12.079Z,5.70
2018-06-25T03:37:42.122Z,5.90
2018-06-25T03:40:11.879Z,6.43
2018-06-25T03:42:42.240Z,6.70
2018-06-25T03:45:16.519Z,6.50
2018-06-25T03:47:51.059Z,6.30
2018-06-25T03:50:19.998Z,6.50
2018-06-25T03:52:49.679Z,6.50
2018-06-25T03:55:19.399Z,6.27
2018-06-25T03:57:49.159Z,6.37
2018-06-25T04:00:18.457Z,5.57
2018-06-25T04:02:49.840Z,6.27
2018-06-25T04:05:19.104Z,8.03
2018-06-25T04:07:48.841Z,8.00
2018-06-25T04:10:22.571Z,7.33
2018-06-25T04:12:52.850Z,8.00
2018-06-25T04:15:22.942Z,7.50
2018-06-25T04:17:52.762Z,7.43
2018-06-25T04:20:22.782Z,7.60
2018-06-25T04:22:52.603Z,7.80
2018-06-25T04:25:22.322Z,7.90
2018-06-25T04:27:53.042Z,7.70
2018-06-25T04:30:24.184Z,7.37
2018-06-25T04:32:58.281Z,7.17
2018-06-25T04:35:28.041Z,7.50
2018-06-25T04:37:57.801Z,8.07
2018-06-25T04:40:27.541Z,7.57
2018-06-25T04:42:57.981Z,8.40
2018-06-25T04:45:28.681Z,8.50
2018-06-25T04:47:58.441Z,8.17
2018-06-25T04:50:28.359Z,7.97
2018-06-25T04:52:58.281Z,8.23
2018-06-25T04:55:27.959Z,8.00
2018-06-25T04:57:57.541Z,8.60
2018-06-25T05:00:27.731Z,7.97
2018-06-25T05:03:01.321Z,7.57
2018-06-25T05:05:31.241Z,8.40
2018-06-25T05:08:00.961Z,7.77
2018-06-25T05:13:04.720Z,7.00
2018-06-25T05:15:34.881Z,7.60
2018-06-25T05:18:04.561Z,7.60
2018-06-25T05:20:34.261Z,7.40
2018-06-25T05:23:04.220Z,7.13
2018-06-25T05:25:33.999Z,6.90
2018-06-25T05:28:03.851Z,7.00
2018-06-25T05:30:33.535Z,6.50
2018-06-25T05:33:03.307Z,6.60
2018-06-25T05:35:33.113Z,5.97
2018-06-25T05:38:02.774Z,6.97
2018-06-25T05:40:32.359Z,6.03
2018-06-25T05:43:01.928Z,5.27
2018-06-25T05:45:31.799Z,6.33
2018-06-25T05:48:02.703Z,6.20
2018-06-25T05:50:32.400Z,5.13
2018-06-25T05:53:09.566Z,5.63
2018-06-25T05:55:38.930Z,5.70
2018-06-25T05:58:08.230Z,6.10
2018-06-25T06:00:37.544Z,6.13
2018-06-25T06:03:06.900Z,6.40
2018-06-25T06:05:36.222Z,6.40
2018-06-25T06:08:05.582Z,6.67
2018-06-25T06:10:34.854Z,6.47
2018-06-25T06:13:04.424Z,6.20
2018-06-25T06:15:34.108Z,6.73
2018-06-25T06:18:03.742Z,6.30
2018-06-25T06:20:33.302Z,6.07
2018-06-25T06:23:02.863Z,5.87
2018-06-25T06:25:32.381Z,5.77
2018-06-25T06:28:01.845Z,5.57
2018-06-25T06:30:31.404Z,6.57
2018-06-25T06:33:01.061Z,5.27
2018-06-25T06:35:30.961Z,5.60
2018-06-25T06:38:00.622Z,5.80
2018-06-25T06:40:30.222Z,6.57
2018-06-25T06:42:59.872Z,6.37
2018-06-25T06:45:30.322Z,5.00
2018-06-25T06:47:59.921Z,6.00
2018-06-25T06:50:29.442Z,6.00
2018-06-25T06:52:59.021Z,6.00
2018-06-25T06:55:36.763Z,5.73
2018-06-25T06:58:06.462Z,6.70
2018-06-25T07:00:35.960Z,6.60
2018-06-25T07:03:05.468Z,5.93
2018-06-25T07:05:35.031Z,6.77
2018-06-25T07:08:04.640Z,6.70
2018-06-25T07:10:34.221Z,6.40
2018-06-25T07:13:03.817Z,6.37
2018-06-25T07:15:33.380Z,5.47
2018-06-25T07:18:03.540Z,5.67
2018-06-25T07:20:33.601Z,5.13
2018-06-25T07:23:03.200Z,5.03
2018-06-25T07:25:32.820Z,5.10
2018-06-25T07:28:02.400Z,4.47
2018-06-25T07:30:31.980Z,4.70
2018-06-25T07:33:01.591Z,4.67
2018-06-25T07:35:30.940Z,4.93
2018-06-25T07:38:00.698Z,4.37
2018-06-25T07:40:30.117Z,4.63
2018-06-25T07:42:59.718Z,4.60
2018-06-25T07:45:29.316Z,4.30
2018-06-25T07:47:58.936Z,4.30
2018-06-25T07:50:28.696Z,5.03
2018-06-25T07:52:58.236Z,4.60
2018-06-25T07:55:27.616Z,5.27
2018-06-25T07:57:58.887Z,4.90
2018-06-25T08:00:27.976Z,4.30
2018-06-25T08:02:57.356Z,3.90
2018-06-25T08:05:26.656Z,4.63
2018-06-25T08:07:55.956Z,4.20
2018-06-25T08:10:25.353Z,4.30
2018-06-25T08:12:54.835Z,4.00
2018-06-25T08:15:24.155Z,4.47
2018-06-25T08:17:54.056Z,3.90
2018-06-25T08:20:23.050Z,3.40
2018-06-25T08:22:52.315Z,3.57
2018-06-25T08:25:21.936Z,3.60
2018-06-25T08:27:51.178Z,3.53
2018-06-25T08:30:21.035Z,3.13
2018-06-25T08:32:50.517Z,3.27
2018-06-25T08:35:19.975Z,3.30
2018-06-25T08:37:49.335Z,3.40
2018-06-25T08:40:18.798Z,2.70
2018-06-25T08:42:48.139Z,2.80
2018-06-25T08:45:17.796Z,3.30
2018-06-25T08:47:47.375Z,2.77
2018-06-25T08:50:20.695Z,2.50
2018-06-25T08:52:50.057Z,2.17
2018-06-25T08:55:19.635Z,2.60
2018-06-25T08:57:49.014Z,2.90
2018-06-25T09:00:21.610Z,2.73
2018-06-25T09:02:51.218Z,3.10
2018-06-25T09:05:20.940Z,2.80
2018-06-25T09:07:50.321Z,2.70
2018-06-25T09:10:20.098Z,2.90
2018-06-25T09:12:49.539Z,2.50
2018-06-25T09:15:19.514Z,2.43
2018-06-25T09:17:49.020Z,2.27
2018-06-25T09:20:18.418Z,2.63
2018-06-25T09:22:47.678Z,2.80
2018-06-25T09:25:17.239Z,2.47
2018-06-25T09:27:50.105Z,2.43
2018-06-25T09:30:20.400Z,1.97
2018-06-25T09:32:49.758Z,2.10
2018-06-25T09:35:19.198Z,2.10
2018-06-25T09:37:48.519Z,2.10
2018-06-25T09:40:17.819Z,2.10
2018-06-25T09:42:47.338Z,2.07
2018-06-25T09:45:16.720Z,2.07
2018-06-25T09:47:46.239Z,2.33
2018-06-25T09:50:16.039Z,2.30
2018-06-25T09:52:44.838Z,2.47
2018-06-25T09:55:14.079Z,2.63
2018-06-25T09:57:43.662Z,2.37
2018-06-25T10:00:17.419Z,2.10
2018-06-25T10:02:46.318Z,2.03
2018-06-25T10:05:15.599Z,2.40
2018-06-25T10:07:44.998Z,2.17
2018-06-25T10:10:14.879Z,2.30
2018-06-25T10:12:44.481Z,2.03
2018-06-25T10:15:13.699Z,2.20
2018-06-25T10:17:42.954Z,2.10
2018-06-25T10:20:12.379Z,2.07
2018-06-25T10:22:41.759Z,2.30
2018-06-25T10:25:12.558Z,2.03
2018-06-25T10:27:41.999Z,2.40
2018-06-25T10:30:11.339Z,2.37
2018-06-25T10:32:40.719Z,2.10
2018-06-25T10:35:10.141Z,2.30
2018-06-25T10:37:39.459Z,2.00
2018-06-25T10:40:08.999Z,2.13
2018-06-25T10:42:38.408Z,2.20
2018-06-25T10:45:07.679Z,1.93
2018-06-25T10:47:37.099Z,2.00
2018-06-25T10:50:06.437Z,1.83
2018-06-25T10:52:36.156Z,2.00
2018-06-25T10:55:05.295Z,2.00
2018-06-25T10:57:34.955Z,2.20
2018-06-25T11:00:04.834Z,2.30
2018-06-25T11:02:33.938Z,2.63
2018-06-25T11:05:03.423Z,2.50
2018-06-25T11:07:32.921Z,2.30
2018-06-25T11:10:02.172Z,2.40
2018-06-25T11:12:31.559Z,2.40
2018-06-25T11:15:00.836Z,2.50
2018-06-25T11:17:30.436Z,2.30
2018-06-25T11:19:59.856Z,2.40
2018-06-25T11:22:29.158Z,2.47
2018-06-25T11:24:59.016Z,2.53
2018-06-25T11:27:28.434Z,2.63
2018-06-25T11:29:58.322Z,2.23
2018-06-25T11:32:27.775Z,2.37
2018-06-25T11:34:56.675Z,2.50
2018-06-25T11:37:26.416Z,2.47
2018-06-25T11:39:55.996Z,2.40
2018-06-25T11:42:25.556Z,2.60
2018-06-25T11:44:54.955Z,2.40
2018-06-25T11:47:24.217Z,2.50
2018-06-25T11:49:53.996Z,2.53
2018-06-25T11:52:23.597Z,2.37
2018-06-25T11:54:52.915Z,2.57
2018-06-25T11:57:22.299Z,2.20
2018-06-25T11:59:52.036Z,2.73
2018-06-25T12:02:22.079Z,3.23
2018-06-25T12:04:51.479Z,2.97
2018-06-25T12:07:20.680Z,3.53
2018-06-25T12:09:50.062Z,4.17
2018-06-25T12:12:19.555Z,4.37
2018-06-25T12:14:49.089Z,3.97
2018-06-25T12:17:18.860Z,4.30
2018-06-25T12:19:48.544Z,4.17
2018-06-25T12:22:18.001Z,4.40
2018-06-25T12:24:47.621Z,5.17
2018-06-25T12:27:17.099Z,4.77
2018-06-25T12:29:46.500Z,4.60
2018-06-25T12:32:15.819Z,4.87
2018-06-25T12:34:45.259Z,5.20
2018-06-25T12:37:14.679Z,4.80
2018-06-25T12:39:44.000Z,4.30
2018-06-25T12:42:14.935Z,4.37
2018-06-25T12:44:44.555Z,4.47
2018-06-25T12:47:13.978Z,4.97
2018-06-25T12:49:43.395Z,4.40
2018-06-25T12:52:12.715Z,4.33
2018-06-25T12:54:42.039Z,4.00
2018-06-25T12:57:11.382Z,3.43
2018-06-25T12:59:40.841Z,3.70
2018-06-25T13:02:10.243Z,3.80
2018-06-25T13:04:39.661Z,3.63
2018-06-25T13:07:08.920Z,3.73
2018-06-25T13:09:37.961Z,3.87
2018-06-25T13:12:09.741Z,3.97
2018-06-25T13:14:39.400Z,3.90
2018-06-25T13:17:08.781Z,3.40
2018-06-25T13:19:37.975Z,3.30
2018-06-25T13:22:07.400Z,3.67
2018-06-25T13:24:37.140Z,3.40
2018-06-25T13:27:06.577Z,3.33
2018-06-25T13:29:40.076Z,3.70
2018-06-25T13:32:09.776Z,3.73
2018-06-25T13:34:38.916Z,3.03
2018-06-25T13:37:08.336Z,2.97
2018-06-25T13:39:38.595Z,3.20
2018-06-25T13:42:09.985Z,3.30
2018-06-25T13:44:39.380Z,3.57
2018-06-25T13:47:08.835Z,3.20
2018-06-25T13:49:38.218Z,3.33
2018-06-25T13:52:08.055Z,3.50
2018-06-25T13:54:37.483Z,3.53
2018-06-25T13:57:07.196Z,3.20
2018-06-25T13:59:36.995Z,3.60
2018-06-25T14:02:06.700Z,3.17
2018-06-25T14:04:36.079Z,5.00
2018-06-25T14:07:05.892Z,6.30
2018-06-25T14:09:35.320Z,3.13
2018-06-25T14:12:04.839Z,2.80
2018-06-25T14:14:34.243Z,2.90
2018-06-25T14:17:03.677Z,3.10
2018-06-25T14:19:33.400Z,2.87
2018-06-25T14:22:02.861Z,2.80
2018-06-25T14:24:37.480Z,2.77
2018-06-25T14:27:11.243Z,2.70
2018-06-25T14:29:40.796Z,2.73
2018-06-25T14:32:15.096Z,2.80
2018-06-25T14:34:49.278Z,3.30
2018-06-25T14:37:18.616Z,3.50
2018-06-25T14:39:47.976Z,2.80
2018-06-25T14:42:17.335Z,2.93
2018-06-25T14:44:46.956Z,2.70
2018-06-25T14:47:16.478Z,2.80
2018-06-25T14:49:45.955Z,2.63
2018-06-25T14:52:15.342Z,6.20
2018-06-25T14:54:44.636Z,3.03
2018-06-25T14:57:14.456Z,3.03
2018-06-25T14:59:43.995Z,3.00
2018-06-25T15:02:13.420Z,2.60
2018-06-25T15:04:42.860Z,2.50
2018-06-25T15:07:12.361Z,2.50
2018-06-25T15:09:41.640Z,2.13
2018-06-25T15:12:11.558Z,2.30
2018-06-25T15:14:41.438Z,2.50
2018-06-25T15:17:11.556Z,2.00
2018-06-25T15:19:41.778Z,2.40
2018-06-25T15:22:11.116Z,2.30
2018-06-25T15:24:40.375Z,2.20
2018-06-25T15:27:10.055Z,2.50
2018-06-25T15:29:39.235Z,2.20
2018-06-25T15:32:08.175Z,2.00
2018-06-25T15:34:37.575Z,2.53
2018-06-25T15:37:07.235Z,2.27
2018-06-25T15:39:36.500Z,2.50
2018-06-25T15:42:05.857Z,2.80
2018-06-25T15:44:35.336Z,2.70
2018-06-25T15:47:04.646Z,2.57
2018-06-25T15:49:33.915Z,2.50
2018-06-25T15:52:03.818Z,2.70
2018-06-25T15:54:33.315Z,2.63
2018-06-25T15:57:02.647Z,2.70
2018-06-25T15:59:32.078Z,2.53
2018-06-25T16:02:02.002Z,2.50
2018-06-25T16:04:31.824Z,2.80
2018-06-25T16:09:34.809Z,2.20
2018-06-25T16:12:04.281Z,2.50
2018-06-25T16:14:33.567Z,2.27
2018-06-25T16:17:02.773Z,2.67
2018-06-25T16:19:32.138Z,2.30
2018-06-25T16:22:02.102Z,2.20
2018-06-25T16:24:56.644Z,2.47
2018-06-25T16:27:25.615Z,2.50
2018-06-25T16:29:54.547Z,2.20
2018-06-25T16:32:24.373Z,2.30
2018-06-25T16:34:53.981Z,2.50
2018-06-25T16:37:23.047Z,2.20
2018-06-25T16:39:52.264Z,2.40
2018-06-25T16:42:21.461Z,2.50
2018-06-25T16:44:50.175Z,2.40
2018-06-25T16:47:22.045Z,2.50
2018-06-25T16:49:51.279Z,2.43
2018-06-25T16:52:20.695Z,2.17
2018-06-25T16:54:49.324Z,2.50
2018-06-25T16:57:18.638Z,2.47
2018-06-25T16:59:48.159Z,2.80
2018-06-25T17:02:17.960Z,2.57
2018-06-25T17:04:47.299Z,2.60
2018-06-25T17:07:21.639Z,2.50
2018-06-25T17:09:50.919Z,2.60
2018-06-25T17:12:20.148Z,2.63
2018-06-25T17:14:49.642Z,2.47
2018-06-25T17:17:18.970Z,2.10
2018-06-25T17:19:48.321Z,2.30
2018-06-25T17:22:17.962Z,2.30
2018-06-25T17:24:47.900Z,2.50
2018-06-25T17:27:19.319Z,2.20
2018-06-25T17:29:48.720Z,2.50
2018-06-25T17:32:17.867Z,2.40
2018-06-25T17:34:47.098Z,2.50
2018-06-25T17:37:16.421Z,2.60
2018-06-25T17:39:45.811Z,2.40
2018-06-25T17:42:15.101Z,2.27
2018-06-25T17:44:44.233Z,2.43
2018-06-25T17:47:13.533Z,2.70
2018-06-25T17:49:45.498Z,2.57
2018-06-25T17:52:25.534Z,2.43
2018-06-25T17:54:59.477Z,2.30
2018-06-25T17:57:28.805Z,2.40
2018-06-25T17:59:57.956Z,2.30
2018-06-25T18:02:34.589Z,2.53
2018-06-25T18:05:08.639Z,2.60
2018-06-25T18:07:39.698Z,2.63
2018-06-25T18:10:13.616Z,2.50
2018-06-25T18:12:47.415Z,2.70
2018-06-25T18:15:18.996Z,2.17
2018-06-25T18:17:52.919Z,2.27
2018-06-25T18:20:22.397Z,2.40
2018-06-25T18:22:51.665Z,2.50
2018-06-25T18:25:20.904Z,2.47
2018-06-25T18:27:55.023Z,2.20
2018-06-25T18:30:24.300Z,2.23
2018-06-25T18:32:53.595Z,2.30
2018-06-25T18:35:23.164Z,2.30
2018-06-25T18:40:26.137Z,2.40
2018-06-25T18:42:55.344Z,2.63
2018-06-25T18:45:24.656Z,2.80
2018-06-25T18:47:53.977Z,3.07
2018-06-25T18:50:23.430Z,2.77
2018-06-25T18:52:53.104Z,3.07
2018-06-25T18:55:22.397Z,3.17
2018-06-25T18:57:52.084Z,2.80
2018-06-25T19:02:56.224Z,3.10
2018-06-25T19:05:25.763Z,3.23
2018-06-25T19:07:55.219Z,3.37
2018-06-25T19:10:25.695Z,2.90
2018-06-25T19:12:55.397Z,3.20
2018-06-25T19:15:28.808Z,3.27
2018-06-25T19:18:00.349Z,3.37
2018-06-25T19:20:32.240Z,3.30
2018-06-25T19:23:01.966Z,3.63
2018-06-25T19:25:40.501Z,3.27
2018-06-25T19:28:10.561Z,3.47
2018-06-25T19:30:44.960Z,3.27
2018-06-25T19:33:16.117Z,3.67
2018-06-25T19:35:47.096Z,3.40
2018-06-25T19:38:17.882Z,3.20
2018-06-25T19:40:48.782Z,3.43
2018-06-25T19:43:19.056Z,3.47
2018-06-25T19:45:49.640Z,3.20
2018-06-25T19:48:19.518Z,3.07
2018-06-25T19:50:50.335Z,3.47
2018-06-25T19:53:19.861Z,3.37
2018-06-25T19:55:50.148Z,3.30
2018-06-25T19:58:19.518Z,3.50
2018-06-25T20:00:48.802Z,3.43
2018-06-25T20:03:20.359Z,3.17
2018-06-25T20:05:53.306Z,3.10
2018-06-25T20:08:27.836Z,2.60
2018-06-25T20:10:57.119Z,2.90
2018-06-25T20:13:26.399Z,3.20
2018-06-25T20:15:55.540Z,4.07
2018-06-25T20:18:25.000Z,4.20
2018-06-25T20:20:54.260Z,3.67
2018-06-25T20:23:23.796Z,3.80
2018-06-25T20:25:53.167Z,3.73
2018-06-25T20:28:22.719Z,3.90
2018-06-25T20:30:52.096Z,3.20
2018-06-25T20:33:21.515Z,3.30
2018-06-25T20:35:55.239Z,2.70
2018-06-25T20:38:24.520Z,2.80
2018-06-25T20:40:53.703Z,2.33
2018-06-25T20:43:23.059Z,2.90
2018-06-25T20:45:52.699Z,2.70
2018-06-25T20:48:22.020Z,2.60
2018-06-25T20:50:51.419Z,3.07
2018-06-25T20:53:21.325Z,2.90
2018-06-25T20:55:50.723Z,3.30
2018-06-25T20:58:20.038Z,2.63
2018-06-25T21:00:49.441Z,3.10
2018-06-25T21:03:18.764Z,3.30
2018-06-25T21:05:53.016Z,3.17
2018-06-25T21:08:22.242Z,2.90
2018-06-25T21:10:51.383Z,3.13
2018-06-25T21:13:20.684Z,3.07
2018-06-25T21:15:49.806Z,3.40
2018-06-25T21:18:19.084Z,3.10
2018-06-25T21:20:48.578Z,3.60
2018-06-25T21:25:50.691Z,3.00
2018-06-25T21:28:20.042Z,2.77
2018-06-25T21:30:49.142Z,3.20
2018-06-25T21:33:18.370Z,3.07
2018-06-25T21:35:47.636Z,2.83
2018-06-25T21:38:17.325Z,2.97
2018-06-25T21:40:47.143Z,2.90
2018-06-25T21:43:18.182Z,3.10
2018-06-25T21:45:48.190Z,3.03
2018-06-25T21:48:17.448Z,3.07
2018-06-25T21:50:46.799Z,3.13
2018-06-25T21:53:15.577Z,3.00
2018-06-25T21:55:44.996Z,3.33
2018-06-25T21:58:14.256Z,3.50
2018-06-25T22:00:51.007Z,3.13
2018-06-25T22:03:20.222Z,2.90
2018-06-25T22:05:50.756Z,3.23
2018-06-25T22:08:20.216Z,3.77
2018-06-25T22:10:49.516Z,3.70
2018-06-25T22:13:18.935Z,3.30
2018-06-25T22:15:48.315Z,3.50
2018-06-25T22:18:17.916Z,3.80
2018-06-25T22:20:47.378Z,3.30
2018-06-25T22:23:17.342Z,2.77
2018-06-25T22:25:46.715Z,3.10
2018-06-25T22:28:16.078Z,3.13
2018-06-25T22:30:45.377Z,3.50
2018-06-25T22:33:14.917Z,3.10
2018-06-25T22:35:44.356Z,3.40
2018-06-25T22:38:13.739Z,3.23
2018-06-25T22:40:47.721Z,3.30
2018-06-25T22:43:16.536Z,3.27
2018-06-25T22:45:45.734Z,3.53
2018-06-25T22:48:15.656Z,3.63
2018-06-25T22:50:44.816Z,3.40
2018-06-25T22:53:14.004Z,3.63
2018-06-25T22:55:43.358Z,3.63
2018-06-25T22:58:12.676Z,3.57
2018-06-25T23:00:41.983Z,3.30
2018-06-25T23:03:11.336Z,3.03
2018-06-25T23:05:40.615Z,3.10
2018-06-25T23:08:09.814Z,3.40
2018-06-25T23:10:39.375Z,3.00
2018-06-25T23:13:08.224Z,3.33
2018-06-25T23:15:37.535Z,3.60
2018-06-25T23:18:07.035Z,3.30
2018-06-25T23:20:36.675Z,3.63
2018-06-25T23:23:05.876Z,3.53
2018-06-25T23:25:35.175Z,2.87
2018-06-25T23:28:04.335Z,3.13
2018-06-25T23:30:33.475Z,3.30
2018-06-25T23:33:02.815Z,2.97
2018-06-25T23:35:32.035Z,3.40
2018-06-25T23:38:01.335Z,3.63
2018-06-25T23:40:31.075Z,3.40
2018-06-25T23:43:00.435Z,3.03
2018-06-25T23:45:29.755Z,3.33
2018-06-25T23:47:59.082Z,3.80
2018-06-25T23:50:28.254Z,3.40
2018-06-25T23:52:57.717Z,3.93
2018-06-25T23:55:28.960Z,3.20
2018-06-25T23:57:58.235Z,3.50
